createdAt,value
2022-10-31T00:00:44.123Z,7.40
2022-10-31T00:01:47.112Z,7.39
2022-10-31T00:02:51.134Z,7.35
2022-10-31T00:03:54.437Z,7.31
2022-10-31T00:04:58.631Z,7.28
2022-10-31T00:06:02.955Z,7.25
2022-10-31T00:07:06.816Z,7.24
2022-10-31T00:08:09.662Z,7.21
2022-10-31T00:09:14.215Z,7.18
2022-10-31T00:10:17.173Z,7.16
2022-10-31T00:11:22.434Z,7.14
2022-10-31T00:12:25.164Z,7.10
2022-10-31T00:13:29.684Z,7.06
2022-10-31T00:14:32.473Z,7.02
2022-10-31T00:15:36.983Z,6.98
2022-10-31T00:16:41.923Z,6.94
2022-10-31T00:17:46.036Z,6.92
2022-10-31T00:18:50.293Z,6.89
2022-10-31T00:19:54.551Z,6.87
2022-10-31T00:21:01.554Z,6.85
2022-10-31T00:22:05.676Z,6.82
2022-10-31T00:23:08.951Z,6.80
2022-10-31T00:24:13.560Z,6.78
2022-10-31T00:25:16.596Z,6.77
2022-10-31T00:26:22.291Z,6.74
2022-10-31T00:27:25.165Z,6.71
2022-10-31T00:28:33.338Z,6.67
2022-10-31T00:29:36.254Z,6.64
2022-10-31T00:30:40.384Z,6.61
2022-10-31T00:31:43.417Z,6.58
2022-10-31T00:32:47.583Z,6.54
2022-10-31T00:33:50.635Z,6.52
2022-10-31T00:34:55.914Z,6.48
2022-10-31T00:35:59.484Z,6.46
2022-10-31T00:37:03.561Z,6.44
2022-10-31T00:38:06.450Z,6.42
2022-10-31T00:39:10.565Z,6.39
2022-10-31T00:40:13.714Z,6.38
2022-10-31T00:41:18.931Z,6.38
2022-10-31T00:42:23.253Z,6.38
2022-10-31T00:43:27.151Z,6.36
2022-10-31T00:44:29.970Z,6.35
2022-10-31T00:45:33.813Z,6.34
2022-10-31T00:46:36.615Z,6.29
2022-10-31T00:47:40.575Z,6.26
2022-10-31T00:48:43.823Z,6.26
2022-10-31T00:49:47.724Z,6.24
2022-10-31T00:50:50.533Z,6.21
2022-10-31T00:51:54.347Z,6.20
2022-10-31T00:52:58.173Z,6.18
2022-10-31T00:54:02.175Z,6.16
2022-10-31T00:55:05.732Z,6.15
2022-10-31T00:56:09.882Z,6.15
2022-10-31T00:57:13.134Z,6.13
2022-10-31T00:58:19.161Z,6.12
2022-10-31T00:59:21.922Z,6.11
2022-10-31T01:00:25.901Z,6.09
2022-10-31T01:01:29.330Z,6.07
2022-10-31T01:02:34.092Z,6.06
2022-10-31T01:03:37.164Z,6.06
2022-10-31T01:04:41.063Z,6.05
2022-10-31T01:05:43.935Z,6.06
2022-10-31T01:06:48.347Z,6.05
2022-10-31T01:07:52.684Z,6.01
2022-10-31T01:08:56.524Z,6.00
2022-10-31T01:09:59.771Z,5.97
2022-10-31T01:11:07.503Z,5.92
2022-10-31T01:12:10.354Z,5.88
2022-10-31T01:13:16.788Z,5.87
2022-10-31T01:14:23.343Z,5.83
2022-10-31T01:15:27.766Z,5.83
2022-10-31T01:16:31.007Z,5.83
2022-10-31T01:17:35.247Z,5.83
2022-10-31T01:18:38.775Z,5.81
2022-10-31T01:19:42.643Z,5.82
2022-10-31T01:20:45.683Z,5.82
2022-10-31T01:21:49.763Z,5.83
2022-10-31T01:22:52.572Z,5.81
2022-10-31T01:23:57.573Z,5.82
2022-10-31T01:25:01.113Z,5.81
2022-10-31T01:26:08.749Z,5.83
2022-10-31T01:27:11.482Z,5.83
2022-10-31T01:28:15.833Z,5.84
2022-10-31T01:29:18.709Z,5.85
2022-10-31T01:30:23.966Z,5.85
2022-10-31T01:31:28.919Z,5.85
2022-10-31T01:32:33.573Z,5.83
2022-10-31T01:33:36.783Z,5.81
2022-10-31T01:34:40.613Z,5.81
2022-10-31T01:35:43.685Z,5.81
2022-10-31T01:36:52.562Z,5.81
2022-10-31T01:37:55.450Z,5.81
2022-10-31T01:39:00.804Z,5.83
2022-10-31T01:40:03.889Z,5.84
2022-10-31T01:41:07.852Z,5.88
2022-10-31T01:42:12.959Z,5.91
2022-10-31T01:43:16.131Z,5.93
2022-10-31T01:44:53.388Z,5.95
2022-10-31T01:46:01.040Z,5.95
2022-10-31T01:47:07.723Z,5.98
2022-10-31T01:48:16.133Z,6.02
2022-10-31T01:49:23.442Z,6.04
2022-10-31T01:50:32.422Z,6.05
2022-10-31T01:51:37.781Z,6.06
2022-10-31T01:52:43.825Z,6.07
2022-10-31T01:53:47.479Z,6.08
2022-10-31T01:54:53.711Z,6.15
2022-10-31T01:55:57.860Z,6.20
2022-10-31T01:57:01.167Z,6.26
2022-10-31T01:58:08.269Z,6.29
2022-10-31T01:59:13.460Z,6.33
2022-10-31T02:00:18.671Z,6.36
2022-10-31T02:01:23.074Z,6.38
2022-10-31T02:02:28.209Z,6.40
2022-10-31T02:03:32.660Z,6.42
2022-10-31T02:04:36.560Z,6.45
2022-10-31T02:06:01.922Z,6.46
2022-10-31T02:07:07.799Z,6.48
2022-10-31T02:08:16.158Z,6.49
2022-10-31T02:09:22.132Z,6.48
2022-10-31T02:10:26.291Z,6.47
2022-10-31T02:11:29.975Z,6.48
2022-10-31T02:12:35.990Z,6.48
2022-10-31T02:13:40.319Z,6.46
2022-10-31T02:14:44.491Z,6.46
2022-10-31T02:15:50.720Z,6.46
2022-10-31T02:16:55.928Z,6.44
2022-10-31T02:18:00.062Z,6.44
2022-10-31T02:19:04.161Z,6.42
2022-10-31T02:20:15.801Z,6.42
2022-10-31T02:21:21.021Z,6.40
2022-10-31T02:22:29.680Z,6.40
2022-10-31T02:24:03.460Z,6.40
2022-10-31T02:25:34.392Z,6.39
2022-10-31T02:26:57.388Z,6.39
2022-10-31T02:28:27.570Z,6.40
2022-10-31T02:29:54.961Z,6.34
2022-10-31T02:31:21.361Z,6.27
2022-10-31T02:32:28.968Z,6.24
2022-10-31T02:33:39.000Z,6.21
2022-10-31T02:34:53.299Z,6.19
2022-10-31T02:36:05.590Z,6.15
2022-10-31T02:37:13.639Z,6.14
2022-10-31T02:38:25.758Z,6.14
2022-10-31T02:39:32.779Z,6.14
2022-10-31T02:40:39.718Z,6.12
2022-10-31T02:42:10.518Z,6.11
2022-10-31T02:43:17.515Z,6.11
2022-10-31T02:44:25.410Z,6.11
2022-10-31T02:45:31.796Z,6.12
2022-10-31T02:46:41.111Z,6.11
2022-10-31T02:47:46.790Z,6.10
2022-10-31T02:48:51.217Z,6.11
2022-10-31T02:49:57.879Z,6.10
2022-10-31T02:51:03.900Z,6.10
2022-10-31T02:52:16.072Z,6.10
2022-10-31T02:53:19.990Z,6.11
2022-10-31T02:54:24.700Z,6.10
2022-10-31T02:55:49.400Z,6.07
2022-10-31T02:56:56.239Z,6.02
2022-10-31T02:58:02.773Z,5.99
2022-10-31T02:59:07.556Z,5.97
2022-10-31T03:00:12.251Z,5.94
2022-10-31T03:01:28.875Z,5.92
2022-10-31T03:02:57.743Z,5.88
2022-10-31T03:04:28.628Z,5.85
2022-10-31T03:05:46.300Z,5.79
2022-10-31T03:06:55.920Z,5.76
2022-10-31T03:08:03.940Z,5.70
2022-10-31T03:09:13.010Z,5.65
2022-10-31T03:10:22.308Z,5.62
2022-10-31T03:11:30.669Z,5.59
2022-10-31T03:12:44.465Z,5.57
2022-10-31T03:13:53.430Z,5.55
2022-10-31T03:15:09.018Z,5.53
2022-10-31T03:16:16.461Z,5.50
2022-10-31T03:17:25.520Z,5.48
2022-10-31T03:18:32.605Z,5.45
2022-10-31T03:19:40.451Z,5.45
2022-10-31T03:20:47.531Z,5.46
2022-10-31T03:21:52.980Z,5.45
2022-10-31T03:23:00.077Z,5.44
2022-10-31T03:24:03.268Z,5.41
2022-10-31T03:25:08.078Z,5.38
2022-10-31T03:26:12.669Z,5.35
2022-10-31T03:27:18.960Z,5.34
2022-10-31T03:28:26.354Z,5.33
2022-10-31T03:29:33.490Z,5.33
2022-10-31T03:30:38.700Z,5.32
2022-10-31T03:31:54.530Z,5.29
2022-10-31T03:32:59.702Z,5.27
2022-10-31T03:34:09.058Z,5.27
2022-10-31T03:35:13.244Z,5.25
2022-10-31T03:36:18.700Z,5.22
2022-10-31T03:37:22.623Z,5.20
2022-10-31T03:38:26.498Z,5.18
2022-10-31T03:39:30.400Z,5.16
2022-10-31T03:40:36.285Z,5.13
2022-10-31T03:41:42.647Z,5.10
2022-10-31T03:42:51.321Z,5.08
2022-10-31T03:44:02.502Z,5.07
2022-10-31T03:45:09.312Z,5.07
2022-10-31T03:46:12.100Z,5.04
2022-10-31T03:47:16.013Z,5.01
2022-10-31T03:48:20.362Z,5.00
2022-10-31T03:49:25.621Z,4.97
2022-10-31T03:50:33.409Z,4.96
2022-10-31T03:51:44.411Z,4.97
2022-10-31T03:52:50.988Z,4.96
2022-10-31T03:53:57.779Z,4.95
2022-10-31T03:55:04.170Z,4.93
2022-10-31T03:56:12.480Z,4.93
2022-10-31T03:57:19.751Z,4.91
2022-10-31T03:58:26.834Z,4.89
2022-10-31T03:59:34.140Z,4.90
2022-10-31T04:00:42.540Z,4.91
2022-10-31T04:01:49.436Z,4.91
2022-10-31T04:02:58.683Z,4.90
2022-10-31T04:04:04.031Z,4.89
2022-10-31T04:05:10.828Z,4.88
2022-10-31T04:06:15.983Z,4.87
2022-10-31T04:07:21.299Z,4.86
2022-10-31T04:08:28.938Z,4.83
2022-10-31T04:09:36.324Z,4.83
2022-10-31T04:10:40.340Z,4.83
2022-10-31T04:11:49.140Z,4.80
2022-10-31T04:13:25.753Z,4.76
2022-10-31T04:14:38.578Z,4.75
2022-10-31T04:15:44.192Z,4.74
2022-10-31T04:16:47.369Z,4.75
2022-10-31T04:17:53.230Z,4.75
2022-10-31T04:18:57.376Z,4.76
2022-10-31T04:20:02.560Z,4.75
2022-10-31T04:21:09.237Z,4.75
2022-10-31T04:22:13.088Z,4.73
2022-10-31T04:23:19.989Z,4.73
2022-10-31T04:24:26.750Z,4.73
2022-10-31T04:25:29.782Z,4.70
2022-10-31T04:26:35.670Z,4.71
2022-10-31T04:27:38.572Z,4.70
2022-10-31T04:28:44.678Z,4.69
2022-10-31T04:29:50.801Z,4.68
2022-10-31T04:30:55.840Z,4.67
2022-10-31T04:31:59.071Z,4.68
2022-10-31T04:33:03.355Z,4.67
2022-10-31T04:34:06.781Z,4.66
2022-10-31T04:35:11.121Z,4.65
2022-10-31T04:36:16.531Z,4.64
2022-10-31T04:37:19.331Z,4.62
2022-10-31T04:38:25.471Z,4.62
2022-10-31T04:39:29.339Z,4.61
2022-10-31T04:40:53.668Z,4.61
2022-10-31T04:42:14.891Z,4.58
2022-10-31T04:44:26.334Z,4.58
2022-10-31T04:45:37.472Z,4.57
2022-10-31T04:46:40.461Z,4.57
2022-10-31T04:47:45.476Z,4.56
2022-10-31T04:48:48.297Z,4.55
2022-10-31T04:49:53.462Z,4.55
2022-10-31T04:51:00.751Z,4.54
2022-10-31T04:52:06.737Z,4.54
2022-10-31T04:53:09.784Z,4.53
2022-10-31T04:54:25.796Z,4.51
2022-10-31T04:55:49.550Z,4.48
2022-10-31T04:56:56.249Z,4.44
2022-10-31T04:58:01.169Z,4.42
2022-10-31T04:59:04.519Z,4.39
2022-10-31T05:00:22.539Z,4.39
2022-10-31T05:01:26.920Z,4.38
2022-10-31T05:02:32.579Z,4.37
2022-10-31T05:03:35.909Z,4.36
2022-10-31T05:04:40.198Z,4.33
2022-10-31T05:05:44.231Z,4.31
2022-10-31T05:06:50.886Z,4.29
2022-10-31T05:07:55.632Z,4.28
2022-10-31T05:09:01.322Z,4.27
2022-10-31T05:10:05.840Z,4.27
2022-10-31T05:11:10.760Z,4.27
2022-10-31T05:12:14.010Z,4.27
2022-10-31T05:13:36.817Z,4.28
2022-10-31T05:14:48.782Z,4.27
2022-10-31T05:16:12.800Z,4.26
2022-10-31T05:17:46.119Z,4.23
2022-10-31T05:19:08.589Z,4.23
2022-10-31T05:20:11.849Z,4.23
2022-10-31T05:21:35.749Z,4.21
2022-10-31T05:22:44.009Z,4.20
2022-10-31T05:23:49.497Z,4.21
2022-10-31T05:24:53.260Z,4.21
2022-10-31T05:25:57.119Z,4.22
2022-10-31T05:26:59.979Z,4.23
2022-10-31T05:28:04.122Z,4.23
2022-10-31T05:29:07.398Z,4.23
2022-10-31T05:30:13.267Z,4.22
2022-10-31T05:31:17.126Z,4.20
2022-10-31T05:32:20.991Z,4.20
2022-10-31T05:33:50.651Z,4.20
2022-10-31T05:35:28.301Z,4.19
2022-10-31T05:36:52.083Z,4.18
2022-10-31T05:37:59.013Z,4.18
2022-10-31T05:39:04.657Z,4.18
2022-10-31T05:40:14.131Z,4.20
2022-10-31T05:41:18.029Z,4.21
2022-10-31T05:42:23.522Z,4.22
2022-10-31T05:43:27.418Z,4.24
2022-10-31T05:44:30.671Z,4.24
2022-10-31T05:45:58.999Z,4.24
2022-10-31T05:47:21.289Z,4.22
2022-10-31T05:48:42.267Z,4.21
2022-10-31T05:50:07.510Z,4.22
2022-10-31T05:51:23.145Z,4.26
2022-10-31T05:52:27.108Z,4.28
2022-10-31T05:53:38.258Z,4.32
2022-10-31T05:54:42.669Z,4.38
2022-10-31T05:55:46.610Z,4.41
2022-10-31T05:56:59.109Z,4.46
2022-10-31T05:58:03.252Z,4.48
2022-10-31T05:59:06.871Z,4.53
2022-10-31T06:00:11.866Z,4.56
2022-10-31T06:01:26.871Z,4.60
2022-10-31T06:02:35.684Z,4.63
2022-10-31T06:03:57.949Z,4.67
2022-10-31T06:05:00.866Z,4.72
2022-10-31T06:06:04.947Z,4.79
2022-10-31T06:07:17.632Z,4.86
2022-10-31T06:08:21.458Z,4.94
2022-10-31T06:09:25.310Z,5.02
2022-10-31T06:10:30.972Z,5.08
2022-10-31T06:11:34.230Z,5.10
2022-10-31T06:12:41.840Z,5.15
2022-10-31T06:14:01.349Z,5.25
2022-10-31T06:15:44.330Z,5.38
2022-10-31T06:16:48.430Z,5.46
2022-10-31T06:18:11.105Z,5.58
2022-10-31T06:19:25.250Z,5.67
2022-10-31T06:20:29.218Z,5.78
2022-10-31T06:21:40.349Z,5.88
2022-10-31T06:22:43.084Z,5.97
2022-10-31T06:23:46.940Z,6.07
2022-10-31T06:25:23.139Z,6.19
2022-10-31T06:26:29.073Z,6.28
2022-10-31T06:27:32.013Z,6.33
2022-10-31T06:28:42.055Z,6.39
2022-10-31T06:30:01.587Z,6.45
2022-10-31T06:31:07.763Z,6.51
2022-10-31T06:32:13.180Z,6.56
2022-10-31T06:33:19.199Z,6.59
2022-10-31T06:34:32.912Z,6.64
2022-10-31T06:35:36.079Z,6.69
2022-10-31T06:36:46.984Z,6.78
2022-10-31T06:37:57.917Z,6.87
2022-10-31T06:39:13.193Z,6.96
2022-10-31T06:40:17.370Z,7.09
2022-10-31T06:41:45.272Z,7.24
2022-10-31T06:42:49.070Z,7.38
2022-10-31T06:43:53.031Z,7.51
2022-10-31T06:45:13.779Z,7.65
2022-10-31T06:46:48.827Z,7.78
2022-10-31T06:48:17.188Z,7.91
2022-10-31T06:49:49.271Z,8.05
2022-10-31T06:51:01.716Z,8.16
2022-10-31T06:52:06.327Z,8.26
2022-10-31T06:54:18.998Z,8.49
2022-10-31T06:55:23.774Z,8.62
2022-10-31T06:56:27.604Z,8.75
2022-10-31T06:57:34.068Z,8.89
2022-10-31T06:58:38.019Z,9.04
2022-10-31T06:59:43.211Z,9.13
2022-10-31T07:01:05.670Z,9.25
2022-10-31T07:02:10.862Z,9.38
2022-10-31T07:03:17.767Z,9.48
2022-10-31T07:04:21.589Z,9.57
2022-10-31T07:05:25.771Z,9.69
2022-10-31T07:06:29.799Z,9.78
2022-10-31T07:07:32.851Z,9.88
2022-10-31T07:08:36.838Z,9.95
2022-10-31T07:09:40.910Z,10.02
2022-10-31T07:10:54.078Z,10.08
2022-10-31T07:11:57.851Z,10.14
2022-10-31T07:13:05.199Z,10.22
2022-10-31T07:14:12.221Z,10.29
2022-10-31T07:15:15.377Z,10.36
2022-10-31T07:16:19.202Z,10.43
2022-10-31T07:17:29.878Z,10.53
2022-10-31T07:18:37.454Z,10.62
2022-10-31T07:19:40.398Z,10.71
2022-10-31T07:20:45.927Z,10.78
2022-10-31T07:21:48.797Z,10.85
2022-10-31T07:22:53.667Z,10.92
2022-10-31T07:23:57.320Z,10.97
2022-10-31T07:25:19.724Z,11.00
2022-10-31T07:26:44.084Z,11.03
2022-10-31T07:27:47.560Z,11.06
2022-10-31T07:28:52.924Z,11.09
2022-10-31T07:29:59.045Z,11.13
2022-10-31T07:31:04.490Z,11.15
2022-10-31T07:32:07.307Z,11.18
2022-10-31T07:33:14.229Z,11.21
2022-10-31T07:34:37.928Z,11.25
2022-10-31T07:36:08.798Z,11.26
2022-10-31T07:37:12.281Z,11.28
2022-10-31T07:38:17.419Z,11.30
2022-10-31T07:39:21.819Z,11.32
2022-10-31T07:40:26.273Z,11.35
2022-10-31T07:41:31.471Z,11.37
2022-10-31T07:42:37.186Z,11.39
2022-10-31T07:43:41.925Z,11.40
2022-10-31T07:45:12.298Z,11.45
2022-10-31T07:46:44.867Z,11.46
2022-10-31T07:48:14.720Z,11.50
2022-10-31T07:49:47.672Z,11.53
2022-10-31T07:51:10.045Z,11.57
2022-10-31T07:52:36.999Z,11.61
2022-10-31T07:54:00.992Z,11.65
2022-10-31T07:55:08.727Z,11.68
2022-10-31T07:56:13.457Z,11.73
2022-10-31T07:57:19.204Z,11.75
2022-10-31T07:58:26.360Z,11.80
2022-10-31T07:59:29.078Z,11.84
2022-10-31T08:00:35.551Z,11.87
2022-10-31T08:01:39.571Z,11.91
2022-10-31T08:03:05.574Z,11.96
2022-10-31T08:04:38.523Z,12.01
2022-10-31T08:06:15.517Z,12.07
2022-10-31T08:07:40.950Z,12.12
2022-10-31T08:08:53.789Z,12.16
2022-10-31T08:09:56.701Z,12.22
2022-10-31T08:11:04.330Z,12.29
2022-10-31T08:12:08.448Z,12.35
2022-10-31T08:13:15.021Z,12.37
2022-10-31T08:14:22.358Z,12.41
2022-10-31T08:15:28.626Z,12.46
2022-10-31T08:16:35.847Z,12.49
2022-10-31T08:17:43.419Z,12.54
2022-10-31T08:18:49.049Z,12.59
2022-10-31T08:20:00.497Z,12.64
2022-10-31T08:21:13.558Z,12.68
2022-10-31T08:22:16.271Z,12.71
2022-10-31T08:23:21.640Z,12.74
2022-10-31T08:24:24.652Z,12.78
2022-10-31T08:25:32.310Z,12.82
2022-10-31T08:26:40.088Z,12.85
2022-10-31T08:27:50.433Z,12.90
2022-10-31T08:28:55.912Z,12.95
2022-10-31T08:30:01.951Z,13.01
2022-10-31T08:31:06.976Z,13.06
2022-10-31T08:32:16.858Z,13.11
2022-10-31T08:33:39.127Z,13.18
2022-10-31T08:35:00.563Z,13.24
2022-10-31T08:36:22.975Z,13.29
2022-10-31T08:37:46.958Z,13.35
2022-10-31T08:38:51.121Z,13.39
2022-10-31T08:39:54.078Z,13.42
2022-10-31T08:40:58.780Z,13.44
2022-10-31T08:42:02.608Z,13.47
2022-10-31T08:43:08.116Z,13.52
2022-10-31T08:44:12.268Z,13.56
2022-10-31T08:45:15.296Z,13.62
2022-10-31T08:46:19.710Z,13.66
2022-10-31T08:47:25.044Z,13.71
2022-10-31T08:48:29.025Z,13.75
2022-10-31T08:49:33.769Z,13.77
2022-10-31T08:50:38.639Z,13.82
2022-10-31T08:51:41.401Z,13.87
2022-10-31T08:53:04.094Z,13.89
2022-10-31T08:54:10.190Z,13.94
2022-10-31T08:55:32.330Z,13.99
2022-10-31T08:56:39.877Z,14.02
2022-10-31T08:58:00.663Z,14.06
2022-10-31T08:59:13.411Z,14.10
2022-10-31T09:00:46.490Z,14.13
2022-10-31T09:01:53.074Z,14.18
2022-10-31T09:03:02.097Z,14.21
2022-10-31T09:04:08.134Z,14.24
2022-10-31T09:05:12.543Z,14.26
2022-10-31T09:06:16.483Z,14.32
2022-10-31T09:07:20.986Z,14.37
2022-10-31T09:08:25.819Z,14.42
2022-10-31T09:09:28.751Z,14.48
2022-10-31T09:10:33.977Z,14.57
2022-10-31T09:11:40.349Z,14.64
2022-10-31T09:12:59.764Z,14.72
2022-10-31T09:14:32.815Z,14.82
2022-10-31T09:16:01.012Z,14.93
2022-10-31T09:17:04.529Z,14.99
2022-10-31T09:18:29.121Z,15.06
2022-10-31T09:19:34.541Z,15.10
2022-10-31T09:20:39.501Z,15.16
2022-10-31T09:21:42.884Z,15.20
2022-10-31T09:22:46.838Z,15.26
2022-10-31T09:23:50.851Z,15.29
2022-10-31T09:24:54.099Z,15.34
2022-10-31T09:25:58.509Z,15.39
2022-10-31T09:27:09.688Z,15.45
2022-10-31T09:28:19.230Z,15.51
2022-10-31T09:29:23.828Z,15.56
2022-10-31T09:30:34.239Z,15.58
2022-10-31T09:31:44.910Z,15.63
2022-10-31T09:33:20.316Z,15.67
2022-10-31T09:34:43.081Z,15.71
2022-10-31T09:35:54.149Z,15.73
2022-10-31T09:36:59.468Z,15.77
2022-10-31T09:38:04.830Z,15.82
2022-10-31T09:39:10.237Z,15.86
2022-10-31T09:40:15.420Z,15.91
2022-10-31T09:41:26.664Z,15.95
2022-10-31T09:42:51.949Z,16.01
2022-10-31T09:44:04.208Z,16.04
2022-10-31T09:45:13.332Z,16.08
2022-10-31T09:46:23.257Z,16.14
2022-10-31T09:47:37.959Z,16.19
2022-10-31T09:49:43.829Z,16.26
2022-10-31T09:50:51.360Z,16.27
2022-10-31T09:52:20.059Z,16.30
2022-10-31T09:53:27.656Z,16.35
2022-10-31T09:54:36.635Z,16.39
2022-10-31T09:55:42.228Z,16.44
2022-10-31T09:56:46.567Z,16.49
2022-10-31T09:57:49.592Z,16.53
2022-10-31T09:58:56.510Z,16.58
2022-10-31T10:00:01.138Z,16.65
2022-10-31T10:01:05.971Z,16.70
2022-10-31T10:02:16.765Z,16.76
2022-10-31T10:03:34.320Z,16.81
2022-10-31T10:04:52.953Z,16.86
2022-10-31T10:06:03.940Z,16.91
2022-10-31T10:07:37.149Z,16.99
2022-10-31T10:08:59.466Z,17.03
2022-10-31T10:10:29.640Z,17.09
2022-10-31T10:12:16.200Z,17.18
2022-10-31T10:13:39.548Z,17.25
2022-10-31T10:15:02.645Z,17.31
2022-10-31T10:16:19.700Z,17.36
2022-10-31T10:17:29.884Z,17.41
2022-10-31T10:18:41.757Z,17.48
2022-10-31T10:20:04.226Z,17.55
2022-10-31T10:21:19.420Z,17.60
2022-10-31T10:22:31.261Z,17.64
2022-10-31T10:23:45.834Z,17.69
2022-10-31T10:25:04.937Z,17.76
2022-10-31T10:26:17.850Z,17.82
2022-10-31T10:27:28.337Z,17.88
2022-10-31T10:28:39.408Z,17.92
2022-10-31T10:29:47.510Z,17.99
2022-10-31T10:30:53.577Z,18.05
2022-10-31T10:31:58.014Z,18.12
2022-10-31T10:33:06.443Z,18.18
2022-10-31T10:34:15.902Z,18.20
2022-10-31T10:35:26.990Z,18.22
2022-10-31T10:36:35.821Z,18.25
2022-10-31T10:37:41.098Z,18.30
2022-10-31T10:38:51.599Z,18.36
2022-10-31T10:39:57.350Z,18.43
2022-10-31T10:41:03.499Z,18.48
2022-10-31T10:42:29.819Z,18.53
2022-10-31T10:43:35.296Z,18.59
2022-10-31T10:44:57.604Z,18.64
2022-10-31T10:46:28.488Z,18.72
2022-10-31T10:47:42.786Z,18.80
2022-10-31T10:48:46.899Z,18.83
2022-10-31T10:49:52.992Z,18.87
2022-10-31T10:50:57.199Z,18.92
2022-10-31T10:52:19.432Z,18.95
2022-10-31T10:53:36.890Z,19.00
2022-10-31T10:55:01.509Z,19.05
2022-10-31T10:56:13.526Z,19.07
2022-10-31T10:57:25.727Z,19.10
2022-10-31T10:58:29.789Z,19.14
2022-10-31T10:59:33.858Z,19.18
2022-10-31T11:00:38.014Z,19.22
2022-10-31T11:01:43.297Z,19.25
2022-10-31T11:02:49.009Z,19.30
2022-10-31T11:03:52.200Z,19.34
2022-10-31T11:04:57.594Z,19.39
2022-10-31T11:06:03.070Z,19.43
2022-10-31T11:07:07.780Z,19.50
2022-10-31T11:08:11.784Z,19.54
2022-10-31T11:09:17.225Z,19.57
2022-10-31T11:10:21.291Z,19.59
2022-10-31T11:11:32.132Z,19.62
2022-10-31T11:12:35.442Z,19.65
2022-10-31T11:13:39.569Z,19.70
2022-10-31T11:14:49.844Z,19.76
2022-10-31T11:15:56.891Z,19.81
2022-10-31T11:17:10.942Z,19.85
2022-10-31T11:18:22.517Z,19.89
2022-10-31T11:19:28.789Z,19.92
2022-10-31T11:20:35.834Z,19.95
2022-10-31T11:21:40.297Z,19.98
2022-10-31T11:22:45.093Z,20.00
2022-10-31T11:23:49.567Z,20.01
2022-10-31T11:24:53.463Z,20.06
2022-10-31T11:25:58.333Z,20.08
2022-10-31T11:27:16.541Z,20.13
2022-10-31T11:28:19.432Z,20.16
2022-10-31T11:29:26.186Z,20.18
2022-10-31T11:30:29.398Z,20.19
2022-10-31T11:31:34.117Z,20.21
2022-10-31T11:32:39.153Z,20.24
2022-10-31T11:33:48.546Z,20.27
2022-10-31T11:34:55.128Z,20.28
2022-10-31T11:35:58.879Z,20.29
2022-10-31T11:37:12.418Z,20.31
2022-10-31T11:38:19.395Z,20.32
2022-10-31T11:39:25.197Z,20.34
2022-10-31T11:40:28.994Z,20.34
2022-10-31T11:41:35.658Z,20.39
2022-10-31T11:42:42.011Z,20.44
2022-10-31T11:43:49.144Z,20.49
2022-10-31T11:44:54.148Z,20.54
2022-10-31T11:45:58.517Z,20.58
2022-10-31T11:47:04.687Z,20.60
2022-10-31T11:48:19.019Z,20.65
2022-10-31T11:49:32.953Z,20.69
2022-10-31T11:50:38.639Z,20.72
2022-10-31T11:51:42.736Z,20.75
2022-10-31T11:52:47.109Z,20.81
2022-10-31T11:54:01.687Z,20.87
2022-10-31T11:55:18.894Z,20.92
2022-10-31T11:56:23.166Z,20.96
2022-10-31T11:57:29.406Z,21.04
2022-10-31T11:58:33.497Z,21.08
2022-10-31T11:59:37.320Z,21.11
2022-10-31T12:00:42.089Z,21.13
2022-10-31T12:01:50.185Z,21.15
2022-10-31T12:02:53.334Z,21.16
2022-10-31T12:04:05.738Z,21.17
2022-10-31T12:05:12.282Z,21.17
2022-10-31T12:06:20.227Z,21.18
2022-10-31T12:07:24.975Z,21.18
2022-10-31T12:08:33.030Z,21.19
2022-10-31T12:09:38.207Z,21.20
2022-10-31T12:10:48.557Z,21.23
2022-10-31T12:12:12.663Z,21.27
2022-10-31T12:13:29.648Z,21.36
2022-10-31T12:14:40.427Z,21.46
2022-10-31T12:15:48.058Z,21.52
2022-10-31T12:16:56.385Z,21.59
2022-10-31T12:18:25.333Z,21.66
2022-10-31T12:19:38.898Z,21.73
2022-10-31T12:20:50.860Z,21.75
2022-10-31T12:22:05.649Z,21.79
2022-10-31T12:23:17.683Z,21.82
2022-10-31T12:24:35.414Z,21.85
2022-10-31T12:25:46.612Z,21.87
2022-10-31T12:26:58.179Z,21.88
2022-10-31T12:28:24.219Z,21.91
2022-10-31T12:29:42.658Z,21.94
2022-10-31T12:30:57.547Z,21.99
2022-10-31T12:32:16.674Z,22.04
2022-10-31T12:33:35.329Z,22.10
2022-10-31T12:34:50.677Z,22.18
2022-10-31T12:36:02.511Z,22.27
2022-10-31T12:37:10.229Z,22.41
2022-10-31T12:38:26.939Z,22.53
2022-10-31T12:39:39.790Z,22.68
2022-10-31T12:40:57.557Z,22.82
2022-10-31T12:42:07.348Z,22.83
2022-10-31T12:43:23.273Z,22.83
2022-10-31T12:45:05.397Z,22.79
2022-10-31T12:46:12.648Z,22.76
2022-10-31T12:47:35.630Z,22.82
2022-10-31T12:49:05.166Z,22.95
2022-10-31T12:50:20.799Z,23.09
2022-10-31T12:51:34.248Z,23.16
2022-10-31T12:52:47.299Z,23.29
2022-10-31T12:54:03.616Z,23.50
2022-10-31T12:55:22.198Z,23.71
2022-10-31T12:56:34.019Z,23.91
2022-10-31T12:57:41.952Z,24.06
2022-10-31T12:58:48.297Z,24.20
2022-10-31T12:59:55.939Z,24.40
2022-10-31T13:01:15.848Z,24.60
2022-10-31T13:02:22.457Z,24.73
2022-10-31T13:03:34.641Z,24.82
2022-10-31T13:04:45.116Z,24.89
2022-10-31T13:05:52.147Z,25.00
2022-10-31T13:06:58.457Z,25.07
2022-10-31T13:08:06.008Z,25.12
2022-10-31T13:09:12.078Z,25.20
2022-10-31T13:10:22.470Z,25.25
2022-10-31T13:11:30.330Z,25.35
2022-10-31T13:12:37.460Z,25.44
2022-10-31T13:13:44.198Z,25.46
2022-10-31T13:14:50.857Z,25.52
2022-10-31T13:15:57.577Z,25.61
2022-10-31T13:17:01.375Z,25.63
2022-10-31T13:18:08.669Z,25.68
2022-10-31T13:19:15.162Z,25.79
2022-10-31T13:20:24.436Z,25.89
2022-10-31T13:21:31.767Z,25.97
2022-10-31T13:22:36.985Z,26.04
2022-10-31T13:23:50.928Z,26.04
2022-10-31T13:24:59.506Z,26.02
2022-10-31T13:26:11.327Z,25.97
2022-10-31T13:27:18.027Z,25.97
2022-10-31T13:28:28.720Z,26.08
2022-10-31T13:29:35.608Z,26.08
2022-10-31T13:30:39.571Z,26.07
2022-10-31T13:31:44.009Z,26.00
2022-10-31T13:32:49.448Z,25.94
2022-10-31T13:33:57.116Z,26.04
2022-10-31T13:35:00.792Z,26.14
2022-10-31T13:36:15.540Z,26.13
2022-10-31T13:37:26.129Z,26.19
2022-10-31T13:38:36.098Z,26.27
2022-10-31T13:39:49.439Z,26.16
2022-10-31T13:40:57.761Z,26.03
2022-10-31T13:42:05.369Z,25.86
2022-10-31T13:43:16.542Z,25.76
2022-10-31T13:44:20.969Z,25.70
2022-10-31T13:45:27.158Z,25.59
2022-10-31T13:46:37.882Z,25.45
2022-10-31T13:47:43.747Z,25.36
2022-10-31T13:48:47.629Z,25.29
2022-10-31T13:49:50.361Z,25.18
2022-10-31T13:51:03.462Z,25.04
2022-10-31T13:52:16.555Z,24.94
2022-10-31T13:53:23.257Z,24.83
2022-10-31T13:54:34.327Z,24.70
2022-10-31T13:55:39.789Z,24.60
2022-10-31T13:56:43.782Z,24.53
2022-10-31T13:57:49.248Z,24.40
2022-10-31T13:59:05.229Z,24.21
2022-10-31T14:00:28.990Z,23.98
2022-10-31T14:01:36.694Z,23.80
2022-10-31T14:02:48.488Z,23.62
2022-10-31T14:04:19.318Z,23.48
2022-10-31T14:05:28.289Z,23.32
2022-10-31T14:06:44.933Z,23.19
2022-10-31T14:07:49.224Z,23.03
2022-10-31T14:08:53.162Z,22.87
2022-10-31T14:10:01.376Z,22.76
2022-10-31T14:11:05.425Z,22.67
2022-10-31T14:12:12.949Z,22.67
2022-10-31T14:13:21.510Z,22.67
2022-10-31T14:14:29.249Z,22.62
2022-10-31T14:15:34.068Z,22.47
2022-10-31T14:16:39.678Z,22.35
2022-10-31T14:17:49.579Z,22.35
2022-10-31T14:19:00.440Z,22.42
2022-10-31T14:20:24.580Z,22.54
2022-10-31T14:21:30.977Z,22.60
2022-10-31T14:22:43.074Z,22.60
2022-10-31T14:23:49.515Z,22.58
2022-10-31T14:24:55.090Z,22.55
2022-10-31T14:26:10.189Z,22.49
2022-10-31T14:27:37.009Z,22.42
2022-10-31T14:28:42.192Z,22.31
2022-10-31T14:29:50.194Z,22.28
2022-10-31T14:30:55.861Z,22.21
2022-10-31T14:32:12.123Z,22.08
2022-10-31T14:33:19.632Z,21.87
2022-10-31T14:34:26.669Z,21.67
2022-10-31T14:35:46.049Z,21.43
2022-10-31T14:37:12.303Z,21.15
2022-10-31T14:38:39.787Z,20.80
2022-10-31T14:39:52.389Z,20.75
2022-10-31T14:41:21.759Z,20.73
2022-10-31T14:42:36.779Z,20.63
2022-10-31T14:44:07.651Z,20.39
2022-10-31T14:45:20.707Z,20.17
2022-10-31T14:46:38.380Z,20.03
2022-10-31T14:47:49.709Z,19.94
2022-10-31T14:49:02.749Z,19.84
2022-10-31T14:50:23.150Z,19.70
2022-10-31T14:51:29.384Z,19.51
2022-10-31T14:52:32.510Z,19.30
2022-10-31T14:53:38.319Z,19.06
2022-10-31T14:54:42.859Z,18.83
2022-10-31T14:55:50.319Z,18.62
2022-10-31T14:56:55.381Z,18.41
2022-10-31T14:58:02.053Z,18.20
2022-10-31T14:59:09.221Z,18.02
2022-10-31T15:00:18.929Z,17.83
2022-10-31T15:01:26.589Z,17.62
2022-10-31T15:02:33.720Z,17.40
2022-10-31T15:03:44.443Z,17.22
2022-10-31T15:04:54.234Z,17.03
2022-10-31T15:05:59.079Z,16.90
2022-10-31T15:07:18.094Z,16.75
2022-10-31T15:08:34.853Z,16.55
2022-10-31T15:09:41.451Z,16.38
2022-10-31T15:10:47.427Z,16.20
2022-10-31T15:11:51.235Z,16.02